createdAt,value
2024-01-15T00:01:03.138Z,97829.50
2024-01-15T00:03:51.714Z,97827.84
2024-01-15T00:06:20.404Z,97826.42
2024-01-15T00:08:48.743Z,97825.55
2024-01-15T00:11:17.221Z,97820.63
2024-01-15T00:13:45.565Z,97820.56
2024-01-15T00:16:13.897Z,97817.95
2024-01-15T00:18:42.430Z,97815.88
2024-01-15T00:21:11.357Z,97815.01
2024-01-15T00:23:44.778Z,97804.02
2024-01-15T00:26:13.973Z,97802.59
2024-01-15T00:28:42.318Z,97796.85
2024-01-15T00:31:10.987Z,97788.20
2024-01-15T00:33:39.778Z,97790.19
2024-01-15T00:36:08.435Z,97782.96
2024-01-15T00:38:36.953Z,97776.69
2024-01-15T00:41:05.297Z,97771.40
2024-01-15T00:43:33.570Z,97763.05
2024-01-15T00:46:05.130Z,97756.13
2024-01-15T00:48:33.916Z,97756.41
2024-01-15T00:51:02.407Z,97747.52
2024-01-15T00:53:30.830Z,97735.48
2024-01-15T00:55:59.209Z,97731.30
2024-01-15T00:58:28.190Z,97737.11
2024-01-15T01:00:56.698Z,97725.84
2024-01-15T01:03:25.229Z,97723.80
2024-01-15T01:05:53.695Z,97723.77
2024-01-15T01:08:22.020Z,97723.14
2024-01-15T01:10:50.227Z,97722.00
2024-01-15T01:13:18.753Z,97716.88
2024-01-15T01:15:47.110Z,97710.69
2024-01-15T01:18:15.741Z,97705.59
2024-01-15T01:20:44.333Z,97704.96
2024-01-15T01:23:12.987Z,97693.91
2024-01-15T01:25:41.347Z,97706.04
2024-01-15T01:28:10.542Z,97704.10
2024-01-15T01:30:39.164Z,97694.73
2024-01-15T01:33:07.635Z,97689.86
2024-01-15T01:35:36.079Z,97683.09
2024-01-15T01:38:04.717Z,97685.40
2024-01-15T01:40:33.260Z,97686.08
2024-01-15T01:43:01.552Z,97681.68
2024-01-15T01:45:29.919Z,97682.38
2024-01-15T01:47:58.747Z,97669.43
2024-01-15T01:50:27.203Z,97664.90
2024-01-15T01:52:55.498Z,97664.29
2024-01-15T01:55:27.764Z,97660.05
2024-01-15T01:57:56.725Z,97655.57
2024-01-15T02:00:25.536Z,97654.98
2024-01-15T02:02:53.911Z,97650.15
2024-01-15T02:05:23.826Z,97646.88
2024-01-15T02:07:52.335Z,97639.76
2024-01-15T02:10:20.651Z,97635.74
2024-01-15T02:12:49.945Z,97637.56
2024-01-15T02:15:18.590Z,97635.52
2024-01-15T02:18:04.859Z,97631.54
2024-01-15T02:20:33.530Z,97625.55
2024-01-15T02:23:14.502Z,97613.32
2024-01-15T02:25:47.445Z,97606.90
2024-01-15T02:28:19.177Z,97610.30
2024-01-15T02:30:48.095Z,97600.51
2024-01-15T02:33:16.768Z,97599.84
2024-01-15T02:35:47.469Z,97590.88
2024-01-15T02:38:15.759Z,97580.13
2024-01-15T02:40:46.355Z,97572.35
2024-01-15T02:43:15.218Z,97571.77
2024-01-15T02:45:43.458Z,97570.98
2024-01-15T02:48:11.997Z,97571.03
2024-01-15T02:50:40.386Z,97570.11
2024-01-15T02:53:09.032Z,97571.80
2024-01-15T02:55:37.392Z,97567.30
2024-01-15T02:58:05.707Z,97560.38
2024-01-15T03:00:34.080Z,97548.70
2024-01-15T03:03:02.454Z,97540.27
2024-01-15T03:05:30.712Z,97543.27
2024-01-15T03:07:59.341Z,97535.42
2024-01-15T03:10:27.850Z,97519.30
2024-01-15T03:12:56.175Z,97517.83
2024-01-15T03:15:24.777Z,97504.21
2024-01-15T03:17:53.330Z,97503.02
2024-01-15T03:20:21.733Z,97495.39
2024-01-15T03:22:50.433Z,97494.59
2024-01-15T03:25:18.644Z,97493.28
2024-01-15T03:27:47.163Z,97487.67
2024-01-15T03:30:15.672Z,97486.05
2024-01-15T03:32:44.379Z,97484.00
2024-01-15T03:35:12.837Z,97480.81
2024-01-15T03:37:41.271Z,97479.35
2024-01-15T03:40:10.440Z,97474.72
2024-01-15T03:42:38.758Z,97472.74
2024-01-15T03:45:07.380Z,97468.38
2024-01-15T03:47:35.716Z,97468.34
2024-01-15T03:50:04.271Z,97470.59
2024-01-15T03:52:32.608Z,97465.35
2024-01-15T03:55:00.985Z,97465.11
2024-01-15T03:57:29.498Z,97458.54
2024-01-15T03:59:57.777Z,97453.16
2024-01-15T04:02:26.153Z,97455.24
2024-01-15T04:04:54.408Z,97448.68
2024-01-15T04:07:22.749Z,97448.00
2024-01-15T04:09:51.116Z,97440.66
2024-01-15T04:12:19.589Z,97437.91
2024-01-15T04:14:47.867Z,97437.42
2024-01-15T04:17:16.168Z,97433.14
2024-01-15T04:19:49.285Z,97424.70
2024-01-15T04:22:17.854Z,97421.41
2024-01-15T04:24:46.378Z,97411.26
2024-01-15T04:27:15.128Z,97410.02
2024-01-15T04:29:45.663Z,97408.09
2024-01-15T04:32:14.041Z,97408.48
2024-01-15T04:34:45.297Z,97403.89
2024-01-15T04:37:15.217Z,97391.05
2024-01-15T04:39:43.492Z,97397.17
2024-01-15T04:42:11.832Z,97398.83
2024-01-15T04:44:40.416Z,97396.59
2024-01-15T04:47:08.715Z,97388.08
2024-01-15T04:49:37.024Z,97395.70
2024-01-15T04:52:05.769Z,97394.98
2024-01-15T04:54:34.080Z,97392.88
2024-01-15T04:57:02.378Z,97392.06
2024-01-15T04:59:30.597Z,97384.44
2024-01-15T05:01:58.972Z,97379.98
2024-01-15T05:04:27.391Z,97384.27
2024-01-15T05:06:56.650Z,97379.52
2024-01-15T05:09:25.287Z,97385.08
2024-01-15T05:11:53.620Z,97386.46
2024-01-15T05:14:21.893Z,97383.81
2024-01-15T05:16:50.935Z,97382.36
2024-01-15T05:19:19.885Z,97379.61
2024-01-15T05:21:48.706Z,97370.31
2024-01-15T05:24:17.142Z,97370.81
2024-01-15T05:26:45.659Z,97364.11
2024-01-15T05:29:14.327Z,97371.16
2024-01-15T05:31:43.383Z,97363.23
2024-01-15T05:34:12.952Z,97365.63
2024-01-15T05:36:41.305Z,97368.73
2024-01-15T05:39:09.884Z,97367.92
2024-01-15T05:41:39.051Z,97373.56
2024-01-15T05:44:07.644Z,97369.20
2024-01-15T05:46:35.925Z,97364.98
2024-01-15T05:49:04.373Z,97356.27
2024-01-15T05:51:32.833Z,97356.02
2024-01-15T05:54:01.088Z,97349.23
2024-01-15T05:56:29.417Z,97352.09
2024-01-15T05:58:57.885Z,97349.58
2024-01-15T06:01:26.588Z,97344.05
2024-01-15T06:03:55.018Z,97343.36
2024-01-15T06:06:23.681Z,97348.31
2024-01-15T06:08:51.935Z,97347.04
2024-01-15T06:11:20.252Z,97351.13
2024-01-15T06:13:48.469Z,97357.06
2024-01-15T06:16:23.826Z,97345.27
2024-01-15T06:18:52.197Z,97338.04
2024-01-15T06:21:21.319Z,97353.67
2024-01-15T06:23:49.815Z,97352.77
2024-01-15T06:26:18.166Z,97351.02
2024-01-15T06:28:46.584Z,97353.42
2024-01-15T06:31:15.097Z,97353.42
2024-01-15T06:33:44.116Z,97349.09
2024-01-15T06:36:12.806Z,97341.98
2024-01-15T06:38:41.271Z,97340.96
2024-01-15T06:41:09.655Z,97339.42
2024-01-15T06:43:38.093Z,97337.38
2024-01-15T06:46:07.968Z,97338.39
2024-01-15T06:48:37.220Z,97333.71
2024-01-15T06:51:05.894Z,97330.55
2024-01-15T06:53:34.148Z,97324.05
2024-01-15T06:56:02.498Z,97317.98
2024-01-15T06:58:32.345Z,97319.05
2024-01-15T07:01:01.484Z,97319.67
2024-01-15T07:03:30.155Z,97311.35
2024-01-15T07:05:58.791Z,97303.62
2024-01-15T07:08:27.904Z,97299.61
2024-01-15T07:10:56.136Z,97298.14
2024-01-15T07:13:24.509Z,97303.42
2024-01-15T07:15:53.122Z,97295.84
2024-01-15T07:18:21.713Z,97294.60
2024-01-15T07:20:50.296Z,97293.36
2024-01-15T07:23:18.745Z,97292.42
2024-01-15T07:25:47.125Z,97293.73
2024-01-15T07:28:15.476Z,97287.91
2024-01-15T07:30:44.093Z,97283.80
2024-01-15T07:33:13.703Z,97288.23
2024-01-15T07:35:42.585Z,97281.89
2024-01-15T07:38:12.974Z,97277.16
2024-01-15T07:40:41.887Z,97276.25
2024-01-15T07:43:10.643Z,97281.33
2024-01-15T07:45:43.778Z,97276.59
2024-01-15T07:48:21.660Z,97269.07
2024-01-15T07:50:50.172Z,97271.80
2024-01-15T07:53:18.641Z,97267.39
2024-01-15T07:55:47.271Z,97268.00
2024-01-15T07:58:17.007Z,97271.33
2024-01-15T08:00:45.927Z,97262.17
2024-01-15T08:03:14.598Z,97270.56
2024-01-15T08:05:43.553Z,97259.59
2024-01-15T08:08:12.673Z,97276.38
2024-01-15T08:10:41.002Z,97268.25
2024-01-15T08:13:10.628Z,97262.36
2024-01-15T08:15:39.242Z,97268.46
2024-01-15T08:18:07.771Z,97260.91
2024-01-15T08:20:36.421Z,97260.92
2024-01-15T08:23:05.852Z,97252.58
2024-01-15T08:25:34.117Z,97248.78
2024-01-15T08:28:02.470Z,97247.94
2024-01-15T08:30:30.908Z,97257.17
2024-01-15T08:33:04.768Z,97256.38
2024-01-15T08:35:37.081Z,97246.66
2024-01-15T08:38:05.347Z,97239.59
2024-01-15T08:40:33.720Z,97249.31
2024-01-15T08:43:03.287Z,97249.80
2024-01-15T08:45:32.397Z,97256.27
2024-01-15T08:48:02.449Z,97259.69
2024-01-15T08:50:30.892Z,97262.06
2024-01-15T08:52:59.743Z,97262.10
2024-01-15T08:55:28.262Z,97269.55
2024-01-15T08:57:56.739Z,97265.84
2024-01-15T09:00:25.115Z,97259.22
2024-01-15T09:02:53.451Z,97255.09
2024-01-15T09:05:22.806Z,97260.15
2024-01-15T09:07:53.273Z,97253.54
2024-01-15T09:10:21.752Z,97239.14
2024-01-15T09:12:53.100Z,97235.14
2024-01-15T09:15:23.162Z,97239.63
2024-01-15T09:17:51.695Z,97238.30
2024-01-15T09:20:20.052Z,97240.30
2024-01-15T09:22:48.315Z,97238.11
2024-01-15T09:25:16.701Z,97244.45
2024-01-15T09:27:48.240Z,97231.58
2024-01-15T09:30:17.031Z,97236.31
2024-01-15T09:32:45.404Z,97222.27
2024-01-15T09:35:13.824Z,97228.83
2024-01-15T09:37:47.490Z,97242.98
2024-01-15T09:40:17.621Z,97247.08
2024-01-15T09:42:47.631Z,97241.56
2024-01-15T09:45:16.819Z,97242.45
2024-01-15T09:47:46.822Z,97243.94
2024-01-15T09:50:18.644Z,97242.55
2024-01-15T09:52:48.145Z,97229.02
2024-01-15T09:55:17.623Z,97220.79
2024-01-15T09:57:47.671Z,97220.52
2024-01-15T10:00:19.524Z,97220.52
2024-01-15T10:02:48.149Z,97212.79
2024-01-15T10:05:17.400Z,97208.55
2024-01-15T10:07:47.167Z,97204.16
2024-01-15T10:10:15.647Z,97208.20
2024-01-15T10:12:43.925Z,97218.85
2024-01-15T10:15:13.387Z,97208.52
2024-01-15T10:17:43.021Z,97203.80
2024-01-15T10:20:12.860Z,97195.86
2024-01-15T10:22:45.154Z,97199.60
2024-01-15T10:25:15.286Z,97189.58
2024-01-15T10:27:43.620Z,97189.73
2024-01-15T10:30:14.731Z,97185.63
2024-01-15T10:32:43.313Z,97176.77
2024-01-15T10:35:12.373Z,97175.33
2024-01-15T10:37:42.947Z,97176.80
2024-01-15T10:40:11.695Z,97176.96
2024-01-15T10:42:40.113Z,97185.38
2024-01-15T10:45:10.389Z,97198.84
2024-01-15T10:47:39.410Z,97193.73
2024-01-15T10:50:08.887Z,97185.14
2024-01-15T10:52:38.829Z,97192.55
2024-01-15T10:55:14.612Z,97202.01
2024-01-15T10:57:47.311Z,97206.21
2024-01-15T11:00:16.610Z,97201.90
2024-01-15T11:02:46.190Z,97197.48
2024-01-15T11:05:14.829Z,97200.95
2024-01-15T11:07:44.158Z,97197.92
2024-01-15T11:10:42.626Z,97181.29
2024-01-15T11:13:15.313Z,97186.78
2024-01-15T11:16:02.229Z,97182.91
2024-01-15T11:18:33.350Z,97176.79
2024-01-15T11:21:17.401Z,97189.65
2024-01-15T11:23:58.385Z,97188.28
2024-01-15T11:26:32.909Z,97174.06
2024-01-15T11:29:04.864Z,97175.63
2024-01-15T11:31:48.731Z,97173.77
2024-01-15T11:34:17.392Z,97165.61
2024-01-15T11:36:55.258Z,97164.14
2024-01-15T11:39:33.564Z,97152.90
2024-01-15T11:42:04.660Z,97138.91
2024-01-15T11:44:32.971Z,97152.39
2024-01-15T11:47:04.094Z,97144.41
2024-01-15T11:49:51.054Z,97150.95
2024-01-15T11:52:22.300Z,97152.55
2024-01-15T11:55:02.723Z,97141.20
2024-01-15T11:57:41.460Z,97124.50
2024-01-15T12:00:13.497Z,97122.46
2024-01-15T12:02:45.646Z,97120.44
2024-01-15T12:05:18.753Z,97113.85
2024-01-15T12:07:51.403Z,97111.73
2024-01-15T12:10:21.950Z,97109.60
2024-01-15T12:12:53.238Z,97113.91
2024-01-15T12:15:21.654Z,97101.61
2024-01-15T12:17:50.516Z,97094.51
2024-01-15T12:20:19.639Z,97093.63
2024-01-15T12:22:56.961Z,97102.42
2024-01-15T12:25:30.952Z,97098.77
2024-01-15T12:28:01.297Z,97107.67
2024-01-15T12:30:30.934Z,97101.83
2024-01-15T12:33:02.185Z,97089.60
2024-01-15T12:40:38.924Z,97102.45
2024-01-15T12:43:08.345Z,97101.30
2024-01-15T12:45:39.161Z,97102.24
2024-01-15T12:48:08.284Z,97098.02
2024-01-15T12:50:37.107Z,97099.94
2024-01-15T12:53:05.599Z,97098.27
2024-01-15T12:55:35.627Z,97105.17
2024-01-15T12:58:04.413Z,97100.34
2024-01-15T13:00:35.935Z,97088.98
2024-01-15T13:03:05.047Z,97103.57
2024-01-15T13:05:35.416Z,97108.55
2024-01-15T13:08:04.734Z,97099.70
2024-01-15T13:10:33.173Z,97102.66
2024-01-15T13:13:01.805Z,97097.40
2024-01-15T13:15:30.223Z,97105.61
2024-01-15T13:17:59.019Z,97099.81
2024-01-15T13:20:27.321Z,97112.98
2024-01-15T13:22:56.474Z,97112.77
2024-01-15T13:25:26.065Z,97111.55
2024-01-15T13:27:54.583Z,97112.20
2024-01-15T13:30:22.970Z,97116.98
2024-01-15T13:32:51.839Z,97118.14
2024-01-15T13:35:20.426Z,97137.95
2024-01-15T13:37:48.807Z,97151.77
2024-01-15T13:40:21.334Z,97154.09
2024-01-15T13:42:50.168Z,97165.87
2024-01-15T13:45:18.718Z,97174.51
2024-01-15T13:47:47.332Z,97184.27
2024-01-15T13:50:15.982Z,97184.64
2024-01-15T13:52:44.354Z,97180.16
2024-01-15T13:55:12.797Z,97180.89
2024-01-15T13:57:41.246Z,97185.54
2024-01-15T14:00:13.549Z,97188.95
2024-01-15T14:02:42.649Z,97193.93
2024-01-15T14:05:13.978Z,97205.11
2024-01-15T14:07:45.312Z,97207.94
2024-01-15T14:10:13.684Z,97218.00
2024-01-15T14:12:42.826Z,97230.30
2024-01-15T14:15:11.211Z,97243.26
2024-01-15T14:17:39.752Z,97248.31
2024-01-15T14:20:10.897Z,97264.23
2024-01-15T14:22:39.484Z,97267.55
2024-01-15T14:25:08.826Z,97272.34
2024-01-15T14:27:37.695Z,97266.88
2024-01-15T14:30:08.695Z,97266.32
2024-01-15T14:32:37.549Z,97276.20
2024-01-15T14:35:07.195Z,97285.91
2024-01-15T14:37:35.727Z,97292.98
2024-01-15T14:40:05.380Z,97299.55
2024-01-15T14:42:33.869Z,97303.37
2024-01-15T14:45:04.678Z,97305.36
2024-01-15T14:47:37.901Z,97310.66
2024-01-15T14:50:11.331Z,97310.38
2024-01-15T14:52:43.639Z,97312.09
2024-01-15T14:55:12.723Z,97320.27
2024-01-15T14:57:41.619Z,97323.18
2024-01-15T15:00:10.360Z,97332.66
2024-01-15T15:02:38.948Z,97330.92
2024-01-15T15:05:08.280Z,97326.10
2024-01-15T15:07:37.562Z,97341.73
2024-01-15T15:10:08.005Z,97348.40
2024-01-15T15:12:36.863Z,97352.77
2024-01-15T15:30:24.232Z,97387.13
2024-01-15T15:32:53.843Z,97392.06
2024-01-15T15:35:23.219Z,97405.28
2024-01-15T15:37:52.414Z,97408.05
2024-01-15T15:40:21.599Z,97404.48
2024-01-15T15:42:49.968Z,97408.45
2024-01-15T15:45:18.338Z,97411.16
2024-01-15T15:47:47.049Z,97418.60
2024-01-15T15:50:15.706Z,97421.48
2024-01-15T15:52:44.527Z,97427.48
2024-01-15T15:55:12.946Z,97435.63
2024-01-15T15:57:41.661Z,97445.80
2024-01-15T16:00:10.592Z,97447.02
2024-01-15T16:02:41.884Z,97445.63
2024-01-15T16:05:11.427Z,97459.73
2024-01-15T16:07:40.132Z,97458.95
2024-01-15T16:10:09.028Z,97458.59
2024-01-15T16:12:37.561Z,97462.97
2024-01-15T16:15:19.038Z,97470.46
2024-01-15T16:23:17.426Z,97478.63
2024-01-15T16:23:32.075Z,97483.31
2024-01-15T16:24:05.191Z,97482.89
2024-01-15T16:26:18.255Z,97484.50
2024-01-15T16:28:47.088Z,97488.48
2024-01-15T16:31:15.599Z,97499.90
2024-01-15T16:33:47.855Z,97507.25
2024-01-15T16:36:21.796Z,97503.80
2024-01-15T16:38:50.400Z,97497.52
2024-01-15T16:41:19.069Z,97502.16
2024-01-15T16:43:49.244Z,97512.41
2024-01-15T16:46:17.921Z,97518.90
2024-01-15T16:48:46.272Z,97516.27
2024-01-15T16:52:08.264Z,97522.35
2024-01-15T16:54:36.974Z,97532.63
2024-01-15T16:57:05.370Z,97545.38
2024-01-15T16:59:35.862Z,97542.86
2024-01-15T17:02:04.741Z,97548.64
2024-01-15T17:04:33.074Z,97549.16
2024-01-15T17:18:27.717Z,97568.19
2024-01-15T17:20:56.372Z,97580.16
2024-01-15T17:23:24.713Z,97596.45
2024-01-15T17:25:53.297Z,97603.70
2024-01-15T17:28:24.473Z,97606.15
2024-01-15T17:30:53.689Z,97614.56
2024-01-15T17:33:22.073Z,97617.77
2024-01-15T17:35:55.396Z,97626.64
2024-01-15T17:38:25.192Z,97628.77
2024-01-15T17:40:53.609Z,97627.87
2024-01-15T17:43:21.899Z,97640.02
2024-01-15T17:45:50.492Z,97644.79
2024-01-15T17:48:18.957Z,97657.50
2024-01-15T17:50:47.690Z,97658.09
2024-01-15T17:53:16.601Z,97670.95
2024-01-15T17:55:45.223Z,97680.36
2024-01-15T17:58:13.491Z,97685.21
2024-01-15T18:00:42.489Z,97686.39
2024-01-15T18:03:10.855Z,97691.96
2024-01-15T18:05:39.667Z,97705.03
2024-01-15T18:08:08.257Z,97706.65
2024-01-15T18:10:36.572Z,97717.64
2024-01-15T18:13:06.603Z,97723.48
2024-01-15T18:15:35.270Z,97736.31
2024-01-15T18:18:05.058Z,97746.40
2024-01-15T18:20:33.767Z,97748.29
2024-01-15T18:23:02.304Z,97759.10
2024-01-15T18:25:31.692Z,97776.27
2024-01-15T18:28:00.728Z,97774.09
2024-01-15T18:30:29.215Z,97783.83
2024-01-15T18:32:57.590Z,97791.10
2024-01-15T18:35:27.454Z,97792.34
2024-01-15T18:37:56.114Z,97799.80
2024-01-15T18:40:24.886Z,97810.14
2024-01-15T18:42:53.141Z,97811.27
2024-01-15T18:45:21.473Z,97818.98
2024-01-15T18:47:49.771Z,97826.27
2024-01-15T18:50:19.251Z,97837.52
2024-01-15T18:52:48.217Z,97843.20
2024-01-15T18:55:18.551Z,97845.81
2024-01-15T18:57:47.179Z,97847.35
2024-01-15T19:00:16.675Z,97857.34
2024-01-15T19:17:51.435Z,97889.03
2024-01-15T19:20:19.910Z,97897.63
2024-01-15T19:22:48.551Z,97902.27
2024-01-15T19:25:17.150Z,97911.63
2024-01-15T19:27:47.431Z,97915.79
2024-01-15T19:30:17.441Z,97917.86
2024-01-15T19:32:46.758Z,97928.79
2024-01-15T19:35:15.817Z,97935.29
2024-01-15T19:37:44.381Z,97942.55
2024-01-15T19:40:13.199Z,97953.08
2024-01-15T19:42:41.787Z,97955.21
2024-01-15T19:45:10.374Z,97959.56
2024-01-15T19:47:41.492Z,97964.06
2024-01-15T19:50:10.401Z,97972.41
2024-01-15T19:52:38.944Z,97971.61
2024-01-15T19:55:07.738Z,97985.77
2024-01-15T19:57:36.079Z,97995.17
2024-01-15T20:00:05.296Z,98002.48
2024-01-15T20:02:34.495Z,98003.23
2024-01-15T20:05:02.920Z,98013.55
2024-01-15T20:07:31.656Z,98021.65
2024-01-15T20:09:59.921Z,98026.77
2024-01-15T20:12:28.313Z,98024.21
2024-01-15T20:14:56.792Z,98031.91
2024-01-15T20:17:26.342Z,98031.85
2024-01-15T20:19:55.627Z,98040.80
2024-01-15T20:22:24.178Z,98043.08
2024-01-15T20:24:52.589Z,98047.73
2024-01-15T20:27:21.310Z,98043.67
2024-01-15T20:29:49.720Z,98058.28
2024-01-15T20:32:19.791Z,98066.16
2024-01-15T20:34:48.190Z,98063.13
2024-01-15T20:37:16.852Z,98074.56
2024-01-15T20:39:45.190Z,98079.45
2024-01-15T20:42:13.587Z,98089.89
2024-01-15T20:44:42.100Z,98095.19
2024-01-15T20:47:11.640Z,98101.20
2024-01-15T20:49:40.611Z,98106.38
2024-01-15T20:52:09.100Z,98113.06
2024-01-15T20:54:37.401Z,98125.21
2024-01-15T20:57:05.691Z,98128.82
2024-01-15T20:59:34.267Z,98141.62
2024-01-15T21:02:02.617Z,98142.52
2024-01-15T21:04:30.959Z,98140.77
2024-01-15T21:07:00.252Z,98153.88
2024-01-15T21:09:28.691Z,98159.73
2024-01-15T21:11:56.954Z,98172.22
2024-01-15T21:14:25.471Z,98170.67
2024-01-15T21:16:53.852Z,98183.00
2024-01-15T21:19:22.672Z,98187.78
2024-01-15T21:21:51.134Z,98193.38
2024-01-15T21:24:23.650Z,98190.64
2024-01-15T21:26:51.895Z,98199.17
2024-01-15T21:29:20.717Z,98198.12
2024-01-15T21:31:49.171Z,98215.02
2024-01-15T21:34:21.821Z,98208.05
2024-01-15T21:36:51.249Z,98221.74
2024-01-15T21:39:19.538Z,98226.03
2024-01-15T21:41:48.256Z,98227.81
2024-01-15T21:44:17.440Z,98239.12
2024-01-15T21:46:45.735Z,98236.95
2024-01-15T21:49:14.176Z,98240.02
2024-01-15T21:51:42.471Z,98249.37
2024-01-15T21:54:10.744Z,98249.90
2024-01-15T21:56:39.260Z,98257.26
2024-01-15T21:59:07.871Z,98259.95
2024-01-15T22:01:36.262Z,98268.98
2024-01-15T22:04:08.505Z,98272.58
2024-01-15T22:06:37.260Z,98276.00
2024-01-15T22:09:05.746Z,98282.13
2024-01-15T22:11:34.247Z,98288.63
2024-01-15T22:14:03.254Z,98299.30
2024-01-15T22:16:31.886Z,98296.38
2024-01-15T22:19:02.708Z,98307.14
2024-01-15T22:21:31.639Z,98312.48
2024-01-15T22:24:00.419Z,98314.59
2024-01-15T22:26:28.887Z,98322.70
2024-01-15T22:28:57.398Z,98322.52
2024-01-15T22:31:25.829Z,98333.98
2024-01-15T22:33:54.543Z,98333.65
2024-01-15T22:36:23.165Z,98337.80
2024-01-15T22:38:51.620Z,98350.98
2024-01-15T22:41:19.905Z,98345.70
2024-01-15T22:43:48.725Z,98348.30
2024-01-15T22:46:17.332Z,98358.59
2024-01-15T22:48:45.839Z,98363.88
2024-01-15T22:51:14.109Z,98376.86
2024-01-15T22:53:43.617Z,98379.75
2024-01-15T22:56:12.260Z,98395.82
2024-01-15T22:58:40.604Z,98408.63
2024-01-15T23:01:09.169Z,98414.75
2024-01-15T23:03:37.545Z,98423.30
2024-01-15T23:06:05.973Z,98435.27
2024-01-15T23:08:34.573Z,98439.03
2024-01-15T23:11:03.052Z,98443.45
2024-01-15T23:13:31.345Z,98451.61
2024-01-15T23:15:59.611Z,98458.94
2024-01-15T23:18:27.996Z,98461.64
2024-01-15T23:20:56.305Z,98468.27
2024-01-15T23:23:24.692Z,98476.58
2024-01-15T23:25:53.249Z,98479.23
2024-01-15T23:28:21.693Z,98490.64
2024-01-15T23:30:49.901Z,98488.21
2024-01-15T23:33:18.504Z,98491.42
2024-01-15T23:35:46.904Z,98497.16
2024-01-15T23:38:15.351Z,98501.73
2024-01-15T23:40:43.618Z,98507.52
2024-01-15T23:43:12.175Z,98511.45
2024-01-15T23:45:41.861Z,98514.33
2024-01-15T23:48:10.339Z,98515.16
2024-01-15T23:50:38.730Z,98522.29
2024-01-15T23:53:07.133Z,98530.81
2024-01-15T23:55:35.808Z,98531.29
2024-01-15T23:58:04.199Z,98530.95
